Time;durP1;ratioP1;P1;durP2;ratioP2;P2;SDS_P1;SDS_P2;PMS_P1;PMS_P2;Temp;Humidity;BMP_temperature;BMP_pressure;BME280_temperature;BME280_humidity;BME280_pressure;Samples;Min_cycle;Max_cycle;Signal;HPM_P1;HPM_P2
2021/12/10 00:01:17;;;;;;;;;6.40;6.40;;;;;3.38;81.56;98220.75;5049893;28;8850;-79
2021/12/10 00:03:45;;;;;;;;;4.40;4.00;;;;;3.36;81.68;98222.66;5048588;28;9500;-81
2021/12/10 00:06:12;;;;;;;;;4.40;3.20;;;;;3.34;81.65;98218.47;5049140;28;8838;-79
2021/12/10 00:08:40;;;;;;;;;2.60;1.00;;;;;3.33;81.73;98217.63;5048118;28;8842;-79
2021/12/10 00:11:08;;;;;;;;;2.20;2.20;;;;;3.29;81.87;98221.47;5047785;28;8970;-78
2021/12/10 00:13:36;;;;;;;;;3.60;3.60;;;;;3.25;82.03;98214.75;5049117;28;8841;-79
2021/12/10 00:16:04;;;;;;;;;5.60;3.80;;;;;3.21;82.26;98215.97;5049600;28;8861;-79
2021/12/10 00:18:36;;;;;;;;;3.00;2.60;;;;;3.18;81.63;98216.19;5050442;28;8855;-79
2021/12/10 00:21:04;;;;;;;;;3.00;3.00;;;;;3.17;81.85;98206.63;5049159;28;8854;-79
2021/12/10 00:23:32;;;;;;;;;5.80;4.20;;;;;3.14;82.39;98204.25;5049432;28;8874;-79
2021/12/10 00:26:02;;;;;;;;;1.40;1.40;;;;;3.14;82.30;98198.13;5047985;28;9535;-80
2021/12/10 00:28:30;;;;;;;;;2.60;1.40;;;;;3.17;82.48;98206.63;5049615;28;8850;-79
2021/12/10 00:31:04;;;;;;;;;1.00;1.00;;;;;3.19;82.02;98201.25;5047909;28;8926;-79
2021/12/10 00:33:32;;;;;;;;;3.60;3.20;;;;;3.17;81.73;98187.41;5048939;28;8915;-80
2021/12/10 00:36:02;;;;;;;;;1.40;1.40;;;;;3.15;81.86;98190.13;5048240;28;8933;-80
2021/12/10 00:38:29;;;;;;;;;3.00;3.00;;;;;3.14;81.61;98188.47;5047355;28;8850;-79
2021/12/10 00:40:57;;;;;;;;;2.40;2.40;;;;;3.12;81.62;98182.50;5047103;28;8838;-79
2021/12/10 00:43:25;;;;;;;;;5.40;5.20;;;;;3.17;82.15;98179.50;5049584;28;9508;-80
2021/12/10 00:45:52;;;;;;;;;3.00;1.00;;;;;3.21;82.25;98189.66;5049861;28;8866;-80
2021/12/10 00:48:20;;;;;;;;;3.80;3.00;;;;;3.22;81.75;98175.56;5047622;28;8873;-79
2021/12/10 00:50:48;;;;;;;;;1.80;1.80;;;;;3.23;81.93;98163.22;5050084;28;9143;-79
2021/12/10 00:53:16;;;;;;;;;3.40;3.40;;;;;3.21;82.04;98163.38;5050077;28;8834;-79
2021/12/10 00:55:43;;;;;;;;;3.60;3.00;;;;;3.20;81.84;98160.84;5048065;28;8877;-79
2021/12/10 00:58:11;;;;;;;;;3.00;3.00;;;;;3.21;81.93;98157.25;5048310;28;8850;-81
2021/12/10 01:00:38;;;;;;;;;3.00;3.00;;;;;3.27;82.01;98160.22;5048304;28;8868;-79
2021/12/10 01:03:06;;;;;;;;;4.00;4.00;;;;;3.28;82.06;98148.78;5047274;28;8862;-79
2021/12/10 01:05:35;;;;;;;;;2.80;2.60;;;;;3.29;81.77;98142.56;5049282;28;8893;-79
2021/12/10 01:08:03;;;;;;;;;2.60;1.40;;;;;3.32;81.71;98141.50;5047922;28;8846;-79
2021/12/10 01:10:31;;;;;;;;;1.00;0.80;;;;;3.34;81.70;98129.88;5046624;28;8851;-79
2021/12/10 01:12:58;;;;;;;;;2.20;2.20;;;;;3.41;81.95;98130.22;5048386;28;8826;-79
2021/12/10 01:15:42;;;;;;;;;3.00;2.60;;;;;3.47;81.14;98125.31;5048943;28;8880;-79
2021/12/10 01:23:49;;;;;;;;;0.00;0.00;;;;;3.62;80.96;98107.47;5028587;28;8876;-80
2021/12/10 01:26:26;;;;;;;;;7.80;6.60;;;;;3.64;81.02;98106.34;5048304;28;8859;-80
2021/12/10 01:28:54;;;;;;;;;4.40;3.40;;;;;3.70;80.69;98105.06;5051570;28;8846;-79
2021/12/10 01:31:21;;;;;;;;;3.20;3.20;;;;;3.73;80.73;98101.19;5051544;28;8865;-79
2021/12/10 01:33:50;;;;;;;;;0.00;0.00;;;;;3.76;80.66;98094.84;5052138;28;8935;-80
2021/12/10 01:36:18;;;;;;;;;4.00;3.00;;;;;3.78;80.90;98092.91;5046421;28;8866;-79
2021/12/10 01:38:45;;;;;;;;;4.00;3.00;;;;;3.81;80.43;98092.69;5046926;28;8851;-80
2021/12/10 01:41:15;;;;;;;;;3.40;3.40;;;;;3.81;80.46;98092.69;5046556;28;8842;-80
2021/12/10 01:43:43;;;;;;;;;1.40;1.40;;;;;3.82;80.68;98096.97;5048958;28;8878;-81
2021/12/10 01:46:11;;;;;;;;;3.00;2.60;;;;;3.85;80.36;98083.56;5048384;28;9548;-80
2021/12/10 01:48:39;;;;;;;;;5.20;4.00;;;;;3.87;81.01;98089.53;5048313;28;8932;-80
2021/12/10 01:51:08;;;;;;;;;1.80;1.40;;;;;3.92;80.99;98082.09;5048127;28;8807;-80
2021/12/10 01:53:35;;;;;;;;;6.00;6.00;;;;;3.94;80.33;98078.38;5049359;28;8843;-80
2021/12/10 01:56:03;;;;;;;;;4.00;3.00;;;;;4.00;80.17;98077.03;5048605;28;8869;-80
2021/12/10 01:58:32;;;;;;;;;3.00;3.00;;;;;4.02;80.23;98075.94;5048601;28;8869;-80
2021/12/10 02:01:00;;;;;;;;;6.80;6.80;;;;;4.04;80.45;98071.38;5045685;28;8839;-81
2021/12/10 02:03:28;;;;;;;;;3.00;1.80;;;;;4.07;80.16;98065.88;5048730;28;9209;-79
2021/12/10 02:05:55;;;;;;;;;1.00;1.00;;;;;4.06;80.27;98064.22;5051786;28;9601;-79
2021/12/10 02:08:23;;;;;;;;;4.80;3.60;;;;;4.06;80.36;98061.56;5051071;28;8858;-80
2021/12/10 02:10:51;;;;;;;;;5.60;4.40;;;;;4.06;80.65;98058.94;5050569;28;8977;-81
2021/12/10 02:13:18;;;;;;;;;4.00;4.00;;;;;4.05;80.57;98062.50;5051246;28;9125;-80
2021/12/10 02:15:46;;;;;;;;;6.20;6.20;;;;;4.03;79.96;98051.28;5051479;28;8993;-80
2021/12/10 02:18:14;;;;;;;;;5.60;4.40;;;;;3.98;80.06;98047.38;5050773;28;8869;-80
2021/12/10 02:20:42;;;;;;;;;4.80;4.80;;;;;3.96;80.25;98054.56;5052962;28;8835;-81
2021/12/10 02:23:09;;;;;;;;;2.20;2.20;;;;;3.95;80.71;98032.66;5052993;28;8854;-80
2021/12/10 02:25:37;;;;;;;;;4.00;3.40;;;;;3.95;81.01;98031.84;5051522;28;8906;-83
2021/12/10 02:28:05;;;;;;;;;3.00;3.00;;;;;3.96;80.65;98036.13;5053016;28;8861;-79
2021/12/10 02:30:33;;;;;;;;;3.60;3.40;;;;;3.97;80.61;98032.53;5052826;28;8854;-79
2021/12/10 02:33:01;;;;;;;;;3.80;3.20;;;;;3.98;80.43;98034.19;5050689;28;8861;-82
2021/12/10 02:35:28;;;;;;;;;2.80;2.80;;;;;4.02;80.24;98025.06;5052890;28;8831;-79
2021/12/10 02:37:56;;;;;;;;;5.80;5.80;;;;;4.00;80.34;98019.94;5051370;28;8876;-80
2021/12/10 02:40:24;;;;;;;;;3.60;3.00;;;;;4.00;80.26;98013.84;5051435;28;8871;-79
2021/12/10 02:42:51;;;;;;;;;4.40;4.00;;;;;3.98;80.50;98007.88;5052049;28;8839;-81
2021/12/10 02:45:19;;;;;;;;;1.80;1.80;;;;;3.96;80.61;97996.66;5051185;28;8850;-79
2021/12/10 02:47:47;;;;;;;;;1.80;1.80;;;;;3.93;80.42;97996.88;5052753;28;8842;-80
2021/12/10 02:50:15;;;;;;;;;2.60;2.60;;;;;3.91;80.61;97988.28;5052656;28;8868;-79
2021/12/10 02:52:43;;;;;;;;;6.00;4.00;;;;;3.91;80.40;97991.78;5050969;28;8870;-80
2021/12/10 02:55:14;;;;;;;;;3.00;3.00;;;;;3.93;79.82;97979.31;5051341;28;8862;-81
2021/12/10 02:57:41;;;;;;;;;3.00;3.00;;;;;4.00;79.97;97982.25;5051472;28;8846;-79
2021/12/10 03:00:09;;;;;;;;;0.00;0.00;;;;;4.05;79.86;97969.53;5050636;28;8850;-79
2021/12/10 03:02:37;;;;;;;;;0.00;0.00;;;;;4.10;79.66;97978.69;5051630;28;8849;-83
2021/12/10 03:05:04;;;;;;;;;1.80;1.00;;;;;4.19;79.56;97982.38;5051626;28;8846;-81
2021/12/10 03:07:32;;;;;;;;;3.00;2.60;;;;;4.26;79.42;97978.25;5050935;28;8892;-81
2021/12/10 03:10:00;;;;;;;;;1.40;1.40;;;;;4.31;79.48;97979.50;5050264;28;8891;-79
2021/12/10 03:12:28;;;;;;;;;1.80;1.80;;;;;4.34;78.64;97971.31;5051113;28;8973;-80
2021/12/10 03:14:55;;;;;;;;;1.00;1.00;;;;;4.38;78.50;97962.22;5051557;28;9270;-80
2021/12/10 03:17:23;;;;;;;;;3.00;3.00;;;;;4.40;78.71;97965.53;5051550;28;8866;-79
2021/12/10 03:19:50;;;;;;;;;4.00;4.00;;;;;4.44;78.32;97963.47;5051994;28;8857;-79
2021/12/10 03:22:18;;;;;;;;;3.00;3.00;;;;;4.45;78.69;97963.34;5051417;28;8846;-80
2021/12/10 03:24:46;;;;;;;;;1.00;1.00;;;;;4.47;78.38;97957.94;5051195;28;8822;-79
2021/12/10 03:27:14;;;;;;;;;2.20;2.20;;;;;4.50;78.35;97958.50;5050443;28;9162;-79
2021/12/10 03:29:42;;;;;;;;;1.80;1.80;;;;;4.53;78.07;97962.66;5051192;28;8834;-80
2021/12/10 03:32:10;;;;;;;;;3.40;3.00;;;;;4.56;78.01;97949.25;5051738;28;8853;-79
2021/12/10 03:34:38;;;;;;;;;2.20;2.20;;;;;4.58;77.99;97952.56;5049857;28;9234;-79
2021/12/10 03:37:05;;;;;;;;;2.40;0.80;;;;;4.61;77.62;97947.88;5049991;28;8858;-80
2021/12/10 03:39:33;;;;;;;;;1.00;1.00;;;;;4.64;78.06;97942.31;5049374;28;8874;-79
2021/12/10 03:42:01;;;;;;;;;1.00;1.00;;;;;4.68;78.10;97932.34;5048732;28;8834;-79
2021/12/10 03:44:29;;;;;;;;;1.00;1.00;;;;;4.68;77.70;97929.72;5051362;28;8839;-79
2021/12/10 03:46:56;;;;;;;;;0.60;0.00;;;;;4.68;77.65;97922.66;5050815;28;9453;-79
2021/12/10 03:49:24;;;;;;;;;1.00;1.00;;;;;4.69;77.94;97920.81;5052005;28;8858;-80
2021/12/10 03:51:52;;;;;;;;;0.60;0.60;;;;;4.67;77.41;97904.31;5051270;28;9556;-79
2021/12/10 03:54:19;;;;;;;;;0.60;0.00;;;;;4.63;77.46;97901.13;5050631;28;8862;-79
2021/12/10 03:56:47;;;;;;;;;1.00;1.00;;;;;4.57;77.77;97900.84;5051385;28;8873;-80
2021/12/10 03:59:15;;;;;;;;;0.00;0.00;;;;;4.51;77.58;97893.47;5050898;28;8862;-79
2021/12/10 04:01:43;;;;;;;;;2.60;2.20;;;;;4.45;78.19;97888.72;5048413;28;8939;-80
2021/12/10 04:04:10;;;;;;;;;0.00;0.00;;;;;4.37;77.92;97876.25;5050417;28;8866;-80
2021/12/10 04:06:38;;;;;;;;;0.80;0.80;;;;;4.29;78.24;97876.09;5050032;28;9162;-80
2021/12/10 04:09:06;;;;;;;;;1.00;0.40;;;;;4.25;78.60;97873.84;5050206;28;8826;-79
2021/12/10 04:11:34;;;;;;;;;1.00;1.00;;;;;4.21;78.41;97864.53;5050266;28;9219;-80
2021/12/10 04:14:02;;;;;;;;;1.00;1.00;;;;;4.16;78.61;97857.03;5051160;28;8851;-79
2021/12/10 04:16:30;;;;;;;;;0.00;0.00;;;;;4.11;78.23;97843.44;5050631;28;8859;-79
2021/12/10 04:18:57;;;;;;;;;0.00;0.00;;;;;4.09;78.31;97844.53;5050225;28;8924;-79
2021/12/10 04:21:25;;;;;;;;;1.00;1.00;;;;;4.05;78.49;97840.50;5050280;28;9536;-79
2021/12/10 04:23:53;;;;;;;;;0.00;0.00;;;;;4.02;78.62;97838.13;5050760;28;8855;-79
2021/12/10 04:26:20;;;;;;;;;1.00;1.00;;;;;3.99;78.31;97833.16;5049115;28;8904;-80
2021/12/10 04:28:48;;;;;;;;;0.00;0.00;;;;;3.97;78.81;97829.81;5051396;28;8854;-79
2021/12/10 04:31:16;;;;;;;;;0.40;0.00;;;;;3.94;78.51;97835.34;5049467;28;8858;-79
2021/12/10 04:33:44;;;;;;;;;1.00;1.00;;;;;3.91;78.50;97833.81;5050038;28;9556;-80
2021/12/10 04:36:12;;;;;;;;;0.00;0.00;;;;;3.87;78.76;97842.94;5048416;28;8860;-79
2021/12/10 04:38:39;;;;;;;;;0.00;0.00;;;;;3.83;78.56;97838.06;5049970;28;9199;-79
2021/12/10 04:41:08;;;;;;;;;1.00;1.00;;;;;3.78;78.80;97834.19;5050095;28;9190;-79
2021/12/10 04:43:37;;;;;;;;;0.00;0.00;;;;;3.71;79.22;97828.59;5049935;28;8873;-79
2021/12/10 04:46:07;;;;;;;;;1.00;1.00;;;;;3.66;79.58;97833.44;5049418;28;8870;-79
2021/12/10 04:48:38;;;;;;;;;0.00;0.00;;;;;3.61;79.11;97832.13;5049897;28;8862;-79
2021/12/10 04:51:07;;;;;;;;;2.40;0.00;;;;;3.54;78.99;97821.31;5050311;28;8878;-79
2021/12/10 04:53:34;;;;;;;;;0.00;0.00;;;;;3.50;79.16;97813.81;5049497;28;8866;-79
2021/12/10 04:56:06;;;;;;;;;0.20;0.20;;;;;3.46;79.06;97818.50;5048476;28;8860;-79
2021/12/10 04:58:34;;;;;;;;;0.00;0.00;;;;;3.43;79.92;97813.53;5049831;28;8972;-79
2021/12/10 05:01:03;;;;;;;;;0.00;0.00;;;;;3.39;79.74;97817.34;5049652;28;9547;-79
2021/12/10 05:03:31;;;;;;;;;0.00;0.00;;;;;3.35;79.66;97812.50;5049911;28;8915;-79
2021/12/10 05:06:02;;;;;;;;;0.60;0.60;;;;;3.28;79.97;97801.66;5050933;28;8945;-79
2021/12/10 05:08:30;;;;;;;;;0.00;0.00;;;;;3.24;79.40;97796.81;5048281;28;8889;-79
2021/12/10 05:10:58;;;;;;;;;0.00;0.00;;;;;3.22;80.28;97796.91;5050153;28;8858;-79
2021/12/10 05:13:26;;;;;;;;;0.00;0.00;;;;;3.24;80.11;97791.53;5050042;28;8981;-79
2021/12/10 05:15:57;;;;;;;;;0.00;0.00;;;;;3.27;79.76;97791.28;5049087;28;8980;-79
2021/12/10 05:18:25;;;;;;;;;0.00;0.00;;;;;3.31;80.00;97793.50;5049151;28;8867;-79
2021/12/10 05:20:53;;;;;;;;;0.00;0.00;;;;;3.34;79.58;97781.91;5049862;28;8846;-79
2021/12/10 05:23:20;;;;;;;;;0.60;0.00;;;;;3.32;79.31;97779.38;5050234;28;8850;-79
2021/12/10 05:25:48;;;;;;;;;3.00;0.00;;;;;3.32;79.67;97765.44;5049423;28;9550;-79
2021/12/10 05:28:16;;;;;;;;;0.00;0.00;;;;;3.30;79.71;97757.66;5049489;28;8984;-79
2021/12/10 05:30:44;;;;;;;;;0.00;0.00;;;;;3.30;79.37;97760.28;5049850;28;8842;-79
2021/12/10 05:33:16;;;;;;;;;0.00;0.00;;;;;3.28;79.69;97748.22;5048554;28;9528;-79
2021/12/10 05:35:44;;;;;;;;;0.00;0.00;;;;;3.28;79.66;97740.34;5048806;28;8872;-79
2021/12/10 05:38:12;;;;;;;;;0.00;0.00;;;;;3.26;79.36;97744.91;5048850;28;8839;-79
2021/12/10 05:40:39;;;;;;;;;0.00;0.00;;;;;3.25;79.80;97744.06;5051677;28;8866;-79
2021/12/10 05:43:07;;;;;;;;;0.20;0.20;;;;;3.25;79.78;97741.44;5052608;28;8943;-79
2021/12/10 05:45:35;;;;;;;;;1.00;0.80;;;;;3.25;79.30;97745.88;5051013;28;9535;-79
2021/12/10 05:48:03;;;;;;;;;0.00;0.00;;;;;3.23;79.64;97737.25;5051185;28;8850;-79
2021/12/10 05:50:31;;;;;;;;;0.00;0.00;;;;;3.23;79.68;97734.63;5050024;28;8827;-79
2021/12/10 05:52:58;;;;;;;;;0.00;0.00;;;;;3.23;79.58;97732.84;5049383;28;8985;-79
2021/12/10 05:55:26;;;;;;;;;0.00;0.00;;;;;3.26;79.35;97731.75;5051632;28;8846;-79
2021/12/10 05:57:54;;;;;;;;;0.60;0.60;;;;;3.25;79.68;97720.41;5049631;28;8876;-79
2021/12/10 06:00:21;;;;;;;;;1.80;1.00;;;;;3.24;79.21;97710.03;5048524;28;9498;-79
2021/12/10 06:02:49;;;;;;;;;0.00;0.00;;;;;3.21;79.47;97718.16;5048955;28;9111;-78
2021/12/10 06:05:17;;;;;;;;;2.60;1.00;;;;;3.18;79.15;97700.84;5049329;28;8842;-79
2021/12/10 06:07:45;;;;;;;;;0.00;0.00;;;;;3.17;79.74;97695.75;5049713;28;8843;-79
2021/12/10 06:10:13;;;;;;;;;0.80;0.00;;;;;3.17;79.59;97690.50;5048762;28;8977;-78
2021/12/10 06:12:41;;;;;;;;;0.00;0.00;;;;;3.14;79.71;97683.69;5045824;28;9749;-79
2021/12/10 06:15:09;;;;;;;;;1.00;1.00;;;;;3.12;79.40;97676.91;5046639;28;8901;-79
2021/12/10 06:17:36;;;;;;;;;1.80;1.00;;;;;3.12;79.33;97680.38;5043439;28;8895;-78
2021/12/10 06:20:05;;;;;;;;;1.00;1.00;;;;;3.11;79.65;97681.31;5046360;28;8854;-79
2021/12/10 06:22:33;;;;;;;;;1.00;1.00;;;;;3.12;79.21;97684.78;5044861;28;8850;-78
2021/12/10 06:25:01;;;;;;;;;1.00;0.00;;;;;3.15;79.62;97677.47;5043989;28;8846;-79
2021/12/10 06:27:29;;;;;;;;;0.20;0.20;;;;;3.17;79.71;97675.53;5044115;28;8866;-79
2021/12/10 06:29:57;;;;;;;;;1.00;1.00;;;;;3.18;79.16;97671.13;5042751;28;8858;-79
2021/12/10 06:32:26;;;;;;;;;0.00;0.00;;;;;3.18;79.47;97674.56;5041514;28;9182;-78
2021/12/10 06:34:54;;;;;;;;;1.00;1.00;;;;;3.20;79.40;97670.03;5041670;28;9016;-79
2021/12/10 06:37:22;;;;;;;;;0.00;0.00;;;;;3.22;79.22;97661.97;5043999;28;8977;-79
2021/12/10 06:39:50;;;;;;;;;1.00;1.00;;;;;3.23;79.09;97663.63;5045358;28;8870;-79
2021/12/10 06:42:18;;;;;;;;;2.20;2.20;;;;;3.24;78.70;97655.63;5042137;28;8988;-79
2021/12/10 06:45:00;;;;;;;;;0.00;0.00;;;;;3.26;78.64;97658.94;5044256;28;8866;-79
2021/12/10 06:47:28;;;;;;;;;0.00;0.00;;;;;3.29;78.53;97648.19;5037403;28;8912;-79
2021/12/10 06:49:57;;;;;;;;;0.00;0.00;;;;;3.29;78.54;97642.94;5042249;28;8989;-79
2021/12/10 06:52:25;;;;;;;;;1.20;0.20;;;;;3.27;79.13;97644.03;5042562;28;9201;-79
2021/12/10 06:54:52;;;;;;;;;0.40;0.40;;;;;3.27;78.90;97644.03;5042610;28;8876;-80
2021/12/10 06:57:20;;;;;;;;;0.80;0.00;;;;;3.28;78.91;97637.78;5038179;28;8913;-79
2021/12/10 06:59:48;;;;;;;;;0.00;0.00;;;;;3.28;78.51;97636.00;5040116;28;8904;-79
2021/12/10 07:02:16;;;;;;;;;1.80;1.00;;;;;3.29;78.60;97640.28;5038177;28;8866;-79
2021/12/10 07:04:44;;;;;;;;;0.00;0.00;;;;;3.30;79.00;97641.97;5038045;28;9248;-79
2021/12/10 07:07:14;;;;;;;;;0.60;0.60;;;;;3.29;78.71;97642.06;5037692;28;8842;-79
2021/12/10 07:09:42;;;;;;;;;1.00;1.00;;;;;3.26;78.68;97643.19;5036981;28;9141;-79
2021/12/10 07:12:13;;;;;;;;;0.00;0.00;;;;;3.23;78.66;97638.19;5039204;28;8904;-79
2021/12/10 07:14:42;;;;;;;;;0.00;0.00;;;;;3.22;78.23;97641.78;5042953;28;8997;-80
2021/12/10 07:17:10;;;;;;;;;0.00;0.00;;;;;3.21;78.00;97631.41;5037147;28;8854;-79
2021/12/10 07:19:38;;;;;;;;;0.40;0.40;;;;;3.20;78.77;97627.97;5040655;28;8888;-80
2021/12/10 07:22:06;;;;;;;;;0.00;0.00;;;;;3.20;78.62;97633.22;5037047;28;8881;-79
2021/12/10 07:24:34;;;;;;;;;0.00;0.00;;;;;3.20;78.01;97629.75;5039777;28;9170;-79
2021/12/10 07:27:02;;;;;;;;;0.00;0.00;;;;;3.19;78.18;97626.25;5041355;28;8876;-79
2021/12/10 07:29:29;;;;;;;;;0.00;0.00;;;;;3.18;78.28;97635.13;5036741;28;8843;-79
2021/12/10 07:31:57;;;;;;;;;0.00;0.00;;;;;3.18;78.27;97627.22;5041139;28;8881;-78
2021/12/10 07:34:25;;;;;;;;;0.00;0.00;;;;;3.18;78.48;97624.59;5039716;28;8831;-79
2021/12/10 07:36:53;;;;;;;;;0.40;0.40;;;;;3.18;78.20;97624.59;5042218;28;8842;-79
2021/12/10 07:39:20;;;;;;;;;0.20;0.20;;;;;3.19;78.12;97626.25;5041028;28;8915;-79
2021/12/10 07:41:48;;;;;;;;;0.00;0.00;;;;;3.19;78.09;97621.00;5040592;28;8889;-79
2021/12/10 07:44:16;;;;;;;;;0.00;0.00;;;;;3.18;78.08;97624.59;5038578;28;9005;-79
2021/12/10 07:46:43;;;;;;;;;0.00;0.00;;;;;3.20;78.39;97622.69;5037326;28;9513;-80
2021/12/10 07:49:16;;;;;;;;;0.00;0.00;;;;;3.23;78.40;97625.06;5038787;28;8830;-79
2021/12/10 07:51:47;;;;;;;;;0.00;0.00;;;;;3.24;77.89;97608.31;5038955;28;8846;-79
2021/12/10 07:54:15;;;;;;;;;0.00;0.00;;;;;3.27;77.64;97621.16;5041226;28;8955;-79
2021/12/10 07:56:46;;;;;;;;;0.80;0.40;;;;;3.28;78.20;97614.13;5038239;28;8858;-79
2021/12/10 07:59:13;;;;;;;;;0.00;0.00;;;;;3.32;77.88;97605.84;5038326;28;9008;-79
2021/12/10 08:01:42;;;;;;;;;0.00;0.00;;;;;3.35;77.70;97613.47;5037209;28;8985;-78
2021/12/10 08:04:10;;;;;;;;;0.40;0.00;;;;;3.38;77.68;97605.28;5037442;28;8871;-79
2021/12/10 08:06:37;;;;;;;;;0.00;0.00;;;;;3.42;77.68;97606.66;5037891;28;9642;-79
2021/12/10 08:09:06;;;;;;;;;1.00;1.00;;;;;3.44;77.42;97604.75;5035625;28;8977;-79
2021/12/10 08:11:34;;;;;;;;;0.00;0.00;;;;;3.48;77.66;97610.59;5033333;28;9240;-79
2021/12/10 08:14:06;;;;;;;;;0.00;0.00;;;;;3.49;76.96;97602.53;5034052;28;8972;-79
2021/12/10 08:16:36;;;;;;;;;0.00;0.00;;;;;3.51;77.46;97611.16;5036755;28;9223;-79
2021/12/10 08:19:04;;;;;;;;;0.00;0.00;;;;;3.54;76.86;97612.69;5035911;28;8870;-79
2021/12/10 08:21:31;;;;;;;;;0.80;0.80;;;;;3.55;77.20;97615.16;5034468;28;9000;-79
2021/12/10 08:23:59;;;;;;;;;1.00;1.00;;;;;3.57;77.56;97615.84;5038164;28;9108;-79
2021/12/10 08:26:27;;;;;;;;;0.20;0.20;;;;;3.59;77.07;97618.34;5038011;28;8862;-79
2021/12/10 08:28:55;;;;;;;;;0.00;0.00;;;;;3.62;76.59;97618.91;5035778;28;8862;-79
2021/12/10 08:31:23;;;;;;;;;0.00;0.00;;;;;3.67;76.34;97616.72;5030535;28;8870;-79
2021/12/10 08:33:51;;;;;;;;;0.00;0.00;;;;;3.70;76.08;97615.59;5033815;28;9614;-80
2021/12/10 08:36:19;;;;;;;;;0.00;0.00;;;;;3.72;76.62;97617.09;5035938;28;8940;-79
2021/12/10 08:38:47;;;;;;;;;1.00;1.00;;;;;3.73;76.18;97610.91;5036263;28;9089;-79
2021/12/10 08:41:15;;;;;;;;;1.00;1.00;;;;;3.73;76.68;97614.34;5032688;28;8870;-79
2021/12/10 08:43:42;;;;;;;;;1.00;0.00;;;;;3.73;76.71;97616.16;5036244;28;9530;-79
2021/12/10 08:46:10;;;;;;;;;0.00;0.00;;;;;3.73;76.66;97606.44;5039275;28;8862;-79
2021/12/10 08:48:39;;;;;;;;;0.00;0.00;;;;;3.77;76.20;97606.19;5037860;28;8935;-79
2021/12/10 08:51:08;;;;;;;;;0.20;0.20;;;;;3.78;76.22;97608.66;5036061;28;8915;-80
2021/12/10 08:53:36;;;;;;;;;1.00;0.40;;;;;3.80;76.33;97599.69;5037135;28;8842;-79
2021/12/10 08:56:08;;;;;;;;;1.00;0.40;;;;;3.84;76.72;97602.88;5035793;28;8952;-79
2021/12/10 08:58:36;;;;;;;;;1.00;1.00;;;;;3.86;75.91;97601.75;5037700;28;9902;-79
2021/12/10 09:01:04;;;;;;;;;0.00;0.00;;;;;3.91;76.10;97598.72;5037121;28;8884;-79
2021/12/10 09:03:43;;;;;;;;;0.00;0.00;;;;;3.96;76.12;97596.50;5035080;28;9214;-79
2021/12/10 09:06:11;;;;;;;;;0.60;0.60;;;;;4.01;75.56;97594.25;5036025;28;8865;-80
2021/12/10 09:08:39;;;;;;;;;0.00;0.00;;;;;4.05;75.69;97596.47;5036275;28;9008;-79
2021/12/10 09:11:07;;;;;;;;;0.20;0.20;;;;;4.13;75.59;97595.78;5037301;28;8865;-79
2021/12/10 09:13:35;;;;;;;;;0.00;0.00;;;;;4.17;75.13;97589.25;5031143;28;9323;-78
2021/12/10 09:16:03;;;;;;;;;0.00;0.00;;;;;4.22;74.69;97592.31;5034891;28;8850;-79
2021/12/10 09:18:31;;;;;;;;;0.00;0.00;;;;;4.25;74.62;97592.88;5037106;28;9017;-80
2021/12/10 09:20:59;;;;;;;;;0.00;0.00;;;;;4.31;74.62;97583.56;5034517;28;8874;-79
2021/12/10 09:23:26;;;;;;;;;2.00;0.80;;;;;4.38;74.52;97593.41;5034714;28;9191;-79
2021/12/10 09:25:54;;;;;;;;;0.00;0.00;;;;;4.45;74.44;97589.22;5036745;28;8861;-79
2021/12/10 09:28:22;;;;;;;;;0.00;0.00;;;;;4.53;74.38;97586.72;5036896;28;9853;-79
2021/12/10 09:30:50;;;;;;;;;0.20;0.20;;;;;4.63;73.90;97584.06;5037094;28;8935;-79
2021/12/10 09:33:18;;;;;;;;;0.00;0.00;;;;;4.71;73.60;97586.81;5035985;28;8951;-79
2021/12/10 09:35:46;;;;;;;;;0.00;0.00;;;;;4.78;73.56;97590.53;5035804;28;8851;-78
2021/12/10 09:38:14;;;;;;;;;0.40;0.40;;;;;4.82;73.85;97597.16;5038164;28;9299;-79
2021/12/10 09:40:42;;;;;;;;;0.60;0.60;;;;;4.86;73.10;97588.00;5037096;28;8870;-79
2021/12/10 09:43:10;;;;;;;;;0.60;0.60;;;;;4.92;73.12;97592.66;5033733;28;8846;-79
2021/12/10 09:45:38;;;;;;;;;2.40;2.40;;;;;5.02;72.91;97591.66;5029832;28;8843;-79
2021/12/10 09:48:07;;;;;;;;;0.00;0.00;;;;;5.27;72.51;97590.16;5032832;28;8843;-79
2021/12/10 09:50:34;;;;;;;;;0.00;0.00;;;;;5.72;71.33;97588.34;5036889;28;8843;-79
2021/12/10 09:53:02;;;;;;;;;0.00;0.00;;;;;6.28;69.34;97584.44;5032355;28;8862;-80
2021/12/10 09:55:30;;;;;;;;;0.00;0.00;;;;;6.84;68.46;97579.50;5034470;28;8862;-79
2021/12/10 09:57:58;;;;;;;;;0.40;0.40;;;;;7.48;67.29;97576.31;5035360;28;8854;-79
2021/12/10 10:00:25;;;;;;;;;1.00;1.00;;;;;8.11;66.08;97571.16;5030688;28;8980;-79
2021/12/10 10:02:54;;;;;;;;;3.60;3.60;;;;;8.59;65.71;97565.03;5032732;28;9317;-81
2021/12/10 10:05:26;;;;;;;;;1.00;1.00;;;;;8.94;64.36;97565.47;5036085;28;8989;-79
2021/12/10 10:07:55;;;;;;;;;0.00;0.00;;;;;9.39;64.12;97564.78;5032624;28;9394;-80
2021/12/10 10:10:23;;;;;;;;;0.00;0.00;;;;;9.91;63.23;97558.69;5031280;28;8981;-79
2021/12/10 10:12:51;;;;;;;;;1.00;1.00;;;;;10.50;62.13;97552.63;5035059;28;8865;-80
2021/12/10 10:15:19;;;;;;;;;3.00;0.75;;;;;10.91;62.17;97551.19;5036390;28;8900;-80
2021/12/10 10:17:52;;;;;;;;;1.00;1.00;;;;;11.11;61.60;97544.31;5030035;28;8929;-79
2021/12/10 10:20:20;;;;;;;;;3.25;3.00;;;;;11.01;61.95;97543.75;5036897;28;8988;-80
2021/12/10 10:22:48;;;;;;;;;0.75;0.75;;;;;10.62;63.06;97545.84;5035811;28;8862;-79
2021/12/10 10:25:16;;;;;;;;;1.00;1.00;;;;;10.19;63.93;97543.91;5036104;28;9128;-79
2021/12/10 10:27:44;;;;;;;;;0.00;0.00;;;;;10.05;64.08;97546.50;5035182;28;8984;-79
2021/12/10 10:30:13;;;;;;;;;0.00;0.00;;;;;10.02;63.37;97536.19;5030038;28;8862;-79
2021/12/10 10:32:45;;;;;;;;;1.00;1.00;;;;;9.87;63.36;97535.31;5029945;28;8854;-80
2021/12/10 10:35:13;;;;;;;;;0.75;0.75;;;;;9.86;64.03;97534.47;5032916;28;8876;-80
2021/12/10 10:37:41;;;;;;;;;0.00;0.00;;;;;10.08;63.22;97543.50;5032130;28;9162;-78
2021/12/10 10:40:09;;;;;;;;;0.50;0.50;;;;;10.35;62.45;97529.63;5034658;28;8908;-79
2021/12/10 10:42:37;;;;;;;;;0.25;0.25;;;;;10.51;62.53;97525.00;5033999;28;8900;-80
2021/12/10 10:45:05;;;;;;;;;1.00;1.00;;;;;10.86;60.87;97531.47;5035322;28;9536;-79
2021/12/10 10:47:32;;;;;;;;;0.00;0.00;;;;;10.99;61.03;97527.16;5032213;28;8831;-79
2021/12/10 10:50:03;;;;;;;;;0.00;0.00;;;;;10.94;61.13;97523.38;5034688;28;8858;-80
2021/12/10 10:52:31;;;;;;;;;1.00;1.00;;;;;10.85;60.33;97521.81;5041384;28;8921;-80
2021/12/10 10:54:59;;;;;;;;;0.00;0.00;;;;;10.46;61.37;97532.69;5034809;28;9204;-79
2021/12/10 10:57:27;;;;;;;;;1.00;1.00;;;;;10.13;62.37;97522.50;5036169;28;8858;-79
2021/12/10 10:59:57;;;;;;;;;0.00;0.00;;;;;9.99;62.41;97523.25;5036325;28;8847;-80
2021/12/10 11:02:25;;;;;;;;;0.00;0.00;;;;;10.00;61.79;97515.09;5031754;28;9152;-79
2021/12/10 11:04:54;;;;;;;;;0.00;0.00;;;;;10.14;61.00;97514.34;5033041;28;8867;-81
2021/12/10 11:07:22;;;;;;;;;1.00;0.25;;;;;10.29;61.09;97512.56;5036258;28;9159;-80
2021/12/10 11:09:52;;;;;;;;;0.00;0.00;;;;;10.36;60.33;97505.53;5037626;28;8968;-80
2021/12/10 11:12:25;;;;;;;;;1.00;1.00;;;;;10.25;60.68;97500.63;5032729;28;9112;-80
2021/12/10 11:14:52;;;;;;;;;0.00;0.00;;;;;10.16;60.73;97506.22;5036226;28;8979;-80
2021/12/10 11:17:20;;;;;;;;;2.00;1.00;;;;;10.00;60.91;97499.16;5038135;28;8905;-81
2021/12/10 11:19:53;;;;;;;;;0.50;0.50;;;;;9.71;61.77;97514.16;5035107;28;9168;-80
2021/12/10 11:22:21;;;;;;;;;0.50;0.50;;;;;9.34;62.61;97516.69;5032475;28;8882;-79
2021/12/10 11:24:51;;;;;;;;;0.00;0.00;;;;;8.97;62.61;97512.03;5032480;28;9175;-79
2021/12/10 11:27:21;;;;;;;;;0.00;0.00;;;;;8.68;63.33;97535.66;5035445;28;8989;-79
2021/12/10 11:29:50;;;;;;;;;0.00;0.00;;;;;8.47;63.09;97527.44;5037128;28;8998;-79
2021/12/10 11:32:19;;;;;;;;;0.00;0.00;;;;;8.28;63.41;97522.47;5035799;28;8885;-80
2021/12/10 11:34:54;;;;;;;;;0.50;0.25;;;;;8.15;63.28;97516.81;5038468;28;9160;-79
2021/12/10 11:37:22;;;;;;;;;0.25;0.00;;;;;8.30;63.08;97520.47;5032758;28;8834;-79
2021/12/10 11:39:50;;;;;;;;;0.00;0.00;;;;;8.50;63.09;97505.88;5035359;28;9198;-79
2021/12/10 11:42:18;;;;;;;;;1.00;1.00;;;;;8.67;61.93;97512.78;5035408;28;9021;-79
2021/12/10 11:45:05;;;;;;;;;0.00;0.00;;;;;8.82;62.24;97500.47;5036835;28;8863;-79
2021/12/10 11:47:39;;;;;;;;;0.00;0.00;;;;;8.97;61.40;97498.75;5034969;28;8997;-79
2021/12/10 11:50:07;;;;;;;;;0.00;0.00;;;;;8.96;61.46;97506.91;5035101;28;9103;-79
2021/12/10 11:52:37;;;;;;;;;0.00;0.00;;;;;8.95;61.34;97506.06;5038456;28;8842;-79
2021/12/10 11:55:07;;;;;;;;;0.00;0.00;;;;;8.97;60.99;97497.94;5037034;28;8928;-79
2021/12/10 11:57:35;;;;;;;;;0.00;0.00;;;;;9.00;61.14;97495.78;5033365;28;9664;-79
2021/12/10 12:00:03;;;;;;;;;0.00;0.00;;;;;8.89;61.02;97490.03;5038552;28;8870;-79